createdAt,value
2023-03-12T00:01:33.301Z,100888.16
2023-03-12T00:04:06.050Z,100901.75
2023-03-12T00:06:38.310Z,100897.34
2023-03-12T00:09:10.281Z,100901.59
2023-03-12T00:11:42.219Z,100894.59
2023-03-12T00:14:14.250Z,100896.38
2023-03-12T00:16:46.211Z,100886.91
2023-03-12T00:19:18.353Z,100886.91
2023-03-12T00:21:50.365Z,100893.28
2023-03-12T00:24:22.443Z,100876.47
2023-03-12T00:26:54.329Z,100877.72
2023-03-12T00:29:26.248Z,100872.53
2023-03-12T00:31:58.196Z,100870.75
2023-03-12T00:34:30.198Z,100860.25
2023-03-12T00:37:02.121Z,100856.66
2023-03-12T00:39:35.411Z,100852.31
2023-03-12T00:42:07.462Z,100859.34
2023-03-12T00:44:39.439Z,100851.50
2023-03-12T00:47:12.565Z,100844.94
2023-03-12T00:49:44.545Z,100861.16
2023-03-12T00:52:16.599Z,100849.56
2023-03-12T00:54:48.511Z,100842.72
2023-03-12T00:57:20.431Z,100837.50
2023-03-12T00:59:52.517Z,100842.38
2023-03-12T01:02:24.503Z,100848.59
2023-03-12T01:04:56.403Z,100845.84
2023-03-12T01:07:28.687Z,100837.63
2023-03-12T01:10:00.721Z,100836.72
2023-03-12T01:12:32.794Z,100831.50
2023-03-12T01:15:05.660Z,100826.19
2023-03-12T01:17:37.837Z,100815.84
2023-03-12T01:20:11.261Z,100811.28
2023-03-12T01:22:44.156Z,100816.75
2023-03-12T01:25:16.205Z,100811.22
2023-03-12T01:27:48.154Z,100813.00
2023-03-12T01:30:20.234Z,100814.66
2023-03-12T01:32:52.894Z,100811.78
2023-03-12T01:35:25.983Z,100831.94
2023-03-12T01:37:58.028Z,100830.41
2023-03-12T01:40:33.868Z,100817.34
2023-03-12T01:43:36.083Z,100812.63
2023-03-12T01:46:22.560Z,100820.63
2023-03-12T01:49:08.264Z,100801.34
2023-03-12T01:51:45.611Z,100798.75
2023-03-12T01:54:31.796Z,100772.88
2023-03-12T01:57:08.553Z,100781.09
2023-03-12T01:59:50.115Z,100795.84
2023-03-12T02:02:27.055Z,100784.50
2023-03-12T02:05:25.420Z,100786.91
2023-03-12T02:07:57.684Z,100776.47
2023-03-12T02:10:30.075Z,100778.03
2023-03-12T02:13:02.378Z,100772.06
2023-03-12T02:15:36.317Z,100770.22
2023-03-12T02:18:14.158Z,100771.06
2023-03-12T02:21:04.613Z,100756.97
2023-03-12T02:24:03.848Z,100762.78
2023-03-12T02:26:38.293Z,100753.19
2023-03-12T02:29:12.110Z,100743.75
2023-03-12T02:31:52.709Z,100750.66
2023-03-12T02:34:24.723Z,100749.00
2023-03-12T02:36:56.771Z,100741.94
2023-03-12T02:39:29.091Z,100746.56
2023-03-12T02:42:01.227Z,100742.19
2023-03-12T02:44:36.564Z,100739.47
2023-03-12T02:47:08.531Z,100726.13
2023-03-12T02:49:40.510Z,100756.25
2023-03-12T02:52:12.725Z,100753.50
2023-03-12T02:54:44.694Z,100756.13
2023-03-12T02:57:16.633Z,100749.09
2023-03-12T02:59:48.532Z,100728.13
2023-03-12T03:02:20.471Z,100749.75
2023-03-12T03:04:52.475Z,100754.22
2023-03-12T03:07:24.464Z,100738.66
2023-03-12T03:09:56.492Z,100731.59
2023-03-12T03:12:28.452Z,100739.31
2023-03-12T03:15:01.182Z,100748.84
2023-03-12T03:17:33.090Z,100750.56
2023-03-12T03:20:10.998Z,100756.13
2023-03-12T03:22:42.966Z,100752.75
2023-03-12T03:25:15.952Z,100756.66
2023-03-12T03:27:47.909Z,100743.56
2023-03-12T03:30:21.308Z,100751.16
2023-03-12T03:32:53.369Z,100739.66
2023-03-12T03:35:25.456Z,100744.06
2023-03-12T03:37:57.405Z,100731.91
2023-03-12T03:40:29.844Z,100734.50
2023-03-12T03:43:01.842Z,100735.50
2023-03-12T03:45:33.782Z,100726.94
2023-03-12T03:48:06.305Z,100705.78
2023-03-12T03:50:39.940Z,100711.41
2023-03-12T03:53:12.682Z,100699.44
2023-03-12T03:55:44.700Z,100693.22
2023-03-12T03:58:16.639Z,100697.72
2023-03-12T04:00:48.678Z,100682.75
2023-03-12T04:03:20.640Z,100674.91
2023-03-12T04:06:02.491Z,100685.34
2023-03-12T04:08:37.233Z,100687.31
2023-03-12T04:11:19.554Z,100686.25
2023-03-12T04:13:51.795Z,100674.44
2023-03-12T04:16:24.744Z,100680.69
2023-03-12T04:18:56.698Z,100674.78
2023-03-12T04:21:28.754Z,100666.25
2023-03-12T04:24:00.697Z,100646.03
2023-03-12T04:26:32.709Z,100661.06
2023-03-12T04:29:04.900Z,100652.13
2023-03-12T04:31:37.011Z,100652.19
2023-03-12T04:34:09.430Z,100645.94
2023-03-12T04:36:41.502Z,100633.88
2023-03-12T04:39:17.424Z,100632.91
2023-03-12T04:41:49.575Z,100626.81
2023-03-12T04:44:21.584Z,100618.75
2023-03-12T04:46:53.615Z,100628.38
2023-03-12T04:49:25.706Z,100628.28
2023-03-12T04:51:57.725Z,100635.13
2023-03-12T04:54:31.922Z,100639.31
2023-03-12T04:57:03.929Z,100631.34
2023-03-12T04:59:35.876Z,100627.97
2023-03-12T05:02:08.104Z,100622.47
2023-03-12T05:04:40.077Z,100620.06
2023-03-12T05:07:12.019Z,100618.13
2023-03-12T05:09:44.384Z,100608.53
2023-03-12T05:12:16.328Z,100609.34
2023-03-12T05:14:48.246Z,100594.31
2023-03-12T05:17:20.218Z,100552.47
2023-03-12T05:19:52.215Z,100583.00
2023-03-12T05:22:24.244Z,100594.31
2023-03-12T05:24:56.190Z,100587.06
2023-03-12T05:27:29.506Z,100590.88
2023-03-12T05:30:05.602Z,100582.66
2023-03-12T05:32:37.885Z,100595.56
2023-03-12T05:35:10.348Z,100596.78
2023-03-12T05:37:42.930Z,100588.00
2023-03-12T05:40:14.996Z,100567.84
2023-03-12T05:42:46.920Z,100580.75
2023-03-12T05:45:19.907Z,100577.16
2023-03-12T05:47:51.797Z,100570.34
2023-03-12T05:50:23.968Z,100573.91
2023-03-12T05:52:55.881Z,100563.34
2023-03-12T05:55:27.830Z,100567.59
2023-03-12T05:57:59.731Z,100579.09
2023-03-12T06:00:33.179Z,100579.09
2023-03-12T06:03:06.078Z,100579.91
2023-03-12T06:05:38.765Z,100573.91
2023-03-12T06:08:10.746Z,100581.72
2023-03-12T06:10:43.029Z,100587.34
2023-03-12T06:13:14.987Z,100571.59
2023-03-12T06:15:47.014Z,100573.78
2023-03-12T06:18:18.920Z,100599.63
2023-03-12T06:20:50.839Z,100595.31
2023-03-12T06:23:22.776Z,100592.78
2023-03-12T06:25:54.664Z,100599.94
2023-03-12T06:28:26.596Z,100604.41
2023-03-12T06:30:58.532Z,100597.28
2023-03-12T06:33:31.255Z,100583.22
2023-03-12T06:36:05.966Z,100589.53
2023-03-12T06:38:38.312Z,100582.53
2023-03-12T06:41:17.276Z,100579.69
2023-03-12T06:43:49.410Z,100576.19
2023-03-12T06:46:21.951Z,100582.22
2023-03-12T06:48:54.655Z,100565.53
2023-03-12T06:51:26.614Z,100561.38
2023-03-12T06:54:01.127Z,100560.72
2023-03-12T06:56:33.512Z,100536.84
2023-03-12T06:59:05.810Z,100540.50
2023-03-12T07:01:37.837Z,100547.41
2023-03-12T07:04:09.891Z,100548.38
2023-03-12T07:06:42.238Z,100552.53
2023-03-12T07:09:14.149Z,100538.47
2023-03-12T07:11:46.181Z,100538.84
2023-03-12T07:14:20.258Z,100543.31
2023-03-12T07:16:52.251Z,100539.66
2023-03-12T07:19:24.185Z,100547.41
2023-03-12T07:21:57.277Z,100544.97
2023-03-12T07:24:29.343Z,100551.06
2023-03-12T07:27:01.276Z,100550.97
2023-03-12T07:29:33.189Z,100554.47
2023-03-12T07:32:05.500Z,100550.16
2023-03-12T07:34:37.506Z,100563.34
2023-03-12T07:37:09.660Z,100554.56
2023-03-12T07:39:41.638Z,100554.88
2023-03-12T07:42:13.654Z,100568.69
2023-03-12T07:44:45.953Z,100557.47
2023-03-12T07:47:24.240Z,100548.75
2023-03-12T07:49:56.435Z,100566.38
2023-03-12T07:52:28.605Z,100551.91
2023-03-12T07:55:00.598Z,100571.94
2023-03-12T07:57:32.683Z,100558.75
2023-03-12T08:00:07.720Z,100552.56
2023-03-12T08:02:40.217Z,100557.25
2023-03-12T08:05:12.373Z,100543.13
2023-03-12T08:07:44.674Z,100552.34
2023-03-12T08:10:16.783Z,100555.19
2023-03-12T08:12:49.231Z,100550.78
2023-03-12T08:15:21.270Z,100510.59
2023-03-12T08:17:53.222Z,100554.44
2023-03-12T08:20:25.207Z,100556.25
2023-03-12T08:22:57.434Z,100549.38
2023-03-12T08:25:29.981Z,100555.56
2023-03-12T08:28:01.911Z,100552.31
2023-03-12T08:30:33.848Z,100559.44
2023-03-12T08:33:05.937Z,100556.53
2023-03-12T08:35:37.986Z,100564.13
2023-03-12T08:38:10.215Z,100569.72
2023-03-12T08:40:42.382Z,100574.31
2023-03-12T08:43:14.303Z,100578.84
2023-03-12T08:45:46.451Z,100577.38
2023-03-12T08:48:18.436Z,100581.22
2023-03-12T08:50:50.764Z,100582.22
2023-03-12T08:53:23.718Z,100577.75
2023-03-12T08:55:57.203Z,100583.31
2023-03-12T08:58:29.757Z,100588.69
2023-03-12T09:01:01.860Z,100590.47
2023-03-12T09:03:33.848Z,100597.63
2023-03-12T09:06:13.434Z,100599.69
2023-03-12T09:08:47.322Z,100599.97
2023-03-12T09:11:19.276Z,100598.63
2023-03-12T09:14:16.925Z,100595.34
2023-03-12T09:16:43.136Z,100583.19
2023-03-12T09:19:15.873Z,100589.59
2023-03-12T09:21:47.865Z,100577.50
2023-03-12T09:24:20.136Z,100597.47
2023-03-12T09:26:52.109Z,100588.25
2023-03-12T09:29:24.820Z,100602.41
2023-03-12T09:31:56.915Z,100587.75
2023-03-12T09:34:29.062Z,100596.91
2023-03-12T09:37:01.054Z,100604.94
2023-03-12T09:39:32.969Z,100598.28
2023-03-12T09:42:19.476Z,100602.81
2023-03-12T09:44:55.510Z,100595.31
2023-03-12T09:47:33.892Z,100593.78
2023-03-12T09:50:22.917Z,100608.06
2023-03-12T09:53:22.933Z,100597.66
2023-03-12T09:55:59.458Z,100614.78
2023-03-12T09:58:38.217Z,100618.44
2023-03-12T10:02:00.172Z,100631.50
2023-03-12T10:05:06.074Z,100633.59
2023-03-12T10:08:03.306Z,100625.25
2023-03-12T10:11:06.193Z,100578.94
2023-03-12T10:14:00.104Z,100633.59
2023-03-12T10:17:08.851Z,100622.56
2023-03-12T10:20:17.553Z,100632.44
2023-03-12T10:23:01.719Z,100628.44
2023-03-12T10:26:06.136Z,100626.88
2023-03-12T10:28:52.754Z,100626.25
2023-03-12T10:31:45.444Z,100611.19
2023-03-12T10:34:51.558Z,100629.16
2023-03-12T10:37:43.865Z,100620.72
2023-03-12T10:40:36.751Z,100627.88
2023-03-12T10:43:09.960Z,100622.97
2023-03-12T10:46:48.994Z,100623.94
2023-03-12T10:49:23.747Z,100618.38
2023-03-12T10:52:16.978Z,100616.97
2023-03-12T10:54:53.024Z,100613.97
2023-03-12T10:57:41.355Z,100615.13
2023-03-12T11:00:22.200Z,100615.38
2023-03-12T11:03:18.787Z,100623.56
2023-03-12T11:05:54.870Z,100630.91
2023-03-12T11:08:35.255Z,100611.63
2023-03-12T11:11:07.453Z,100615.69
2023-03-12T11:13:41.915Z,100625.44
2023-03-12T11:16:16.938Z,100629.19
2023-03-12T11:18:59.990Z,100632.97
2023-03-12T11:21:37.390Z,100641.06
2023-03-12T11:24:16.188Z,100626.03
2023-03-12T11:27:03.890Z,100618.75
2023-03-12T11:29:45.788Z,100646.28
2023-03-12T11:32:38.751Z,100638.59
2023-03-12T11:35:15.377Z,100633.50
2023-03-12T11:37:56.585Z,100641.47
2023-03-12T11:40:50.254Z,100646.81
2023-03-12T11:43:44.274Z,100645.16
2023-03-12T11:46:22.365Z,100640.94
2023-03-12T11:49:26.349Z,100608.13
2023-03-12T11:52:38.729Z,100632.22
2023-03-12T11:55:55.069Z,100642.09
2023-03-12T11:58:56.054Z,100636.28
2023-03-12T12:01:58.187Z,100641.03
2023-03-12T12:05:21.832Z,100632.66
2023-03-12T12:08:08.559Z,100626.19
2023-03-12T12:11:28.946Z,100604.28
2023-03-12T12:14:25.317Z,100595.59
2023-03-12T12:17:19.729Z,100596.91
2023-03-12T12:20:31.708Z,100599.72
2023-03-12T12:23:35.770Z,100603.47
2023-03-12T12:26:41.368Z,100586.19
2023-03-12T12:29:43.402Z,100586.44
2023-03-12T12:32:56.188Z,100577.94
2023-03-12T12:35:41.334Z,100572.88
2023-03-12T12:38:37.940Z,100575.69
2023-03-12T12:41:18.072Z,100556.47
2023-03-12T12:44:32.398Z,100543.16
2023-03-12T12:47:13.178Z,100555.09
2023-03-12T12:49:54.809Z,100565.13
2023-03-12T12:52:28.868Z,100555.75
2023-03-12T12:55:30.937Z,100549.59
2023-03-12T12:58:29.283Z,100546.88
2023-03-12T13:01:02.700Z,100546.00
2023-03-12T13:03:35.198Z,100536.16
2023-03-12T13:06:07.983Z,100527.25
2023-03-12T13:08:45.867Z,100542.31
2023-03-12T13:11:20.635Z,100534.38
2023-03-12T13:14:04.932Z,100526.44
2023-03-12T13:16:45.720Z,100511.19
2023-03-12T13:19:17.642Z,100532.47
2023-03-12T13:22:01.425Z,100529.84
2023-03-12T13:25:09.895Z,100539.47
2023-03-12T13:27:45.624Z,100533.41
2023-03-12T13:30:36.104Z,100524.66
2023-03-12T13:33:16.035Z,100529.88
2023-03-12T13:36:17.458Z,100512.19
2023-03-12T13:39:00.140Z,100531.47
2023-03-12T13:41:40.928Z,100520.94
2023-03-12T13:44:28.916Z,100525.41
2023-03-12T13:47:10.989Z,100529.09
2023-03-12T13:50:15.480Z,100507.22
2023-03-12T13:53:00.171Z,100492.31
2023-03-12T13:55:36.482Z,100508.16
2023-03-12T13:58:21.668Z,100523.97
2023-03-12T14:01:07.097Z,100508.81
2023-03-12T14:03:58.017Z,100530.75
2023-03-12T14:06:47.170Z,100529.84
2023-03-12T14:09:31.575Z,100529.66
2023-03-12T14:12:47.866Z,100540.00
2023-03-12T14:15:32.617Z,100533.91
2023-03-12T14:18:28.875Z,100528.34
2023-03-12T14:21:08.797Z,100534.81
2023-03-12T14:23:50.953Z,100544.47
2023-03-12T14:26:32.089Z,100550.53
2023-03-12T14:30:13.431Z,100559.13
2023-03-12T14:32:50.636Z,100549.63
2023-03-12T14:35:29.492Z,100562.84
2023-03-12T14:38:11.484Z,100562.84
2023-03-12T14:41:02.222Z,100533.47
2023-03-12T14:43:35.718Z,100570.00
2023-03-12T14:46:19.811Z,100569.19
2023-03-12T14:48:55.003Z,100575.34
2023-03-12T14:51:36.152Z,100561.25
2023-03-12T14:54:24.311Z,100565.59
2023-03-12T14:56:56.286Z,100567.38
2023-03-12T14:59:37.435Z,100533.50
2023-03-12T15:02:16.919Z,100560.34
2023-03-12T15:04:59.069Z,100550.59
2023-03-12T15:07:41.745Z,100566.63
2023-03-12T15:10:27.222Z,100565.75
2023-03-12T15:13:02.708Z,100568.56
2023-03-12T15:15:43.091Z,100563.28
2023-03-12T15:18:29.408Z,100566.88
2023-03-12T15:21:03.222Z,100563.59
2023-03-12T15:23:38.125Z,100579.53
2023-03-12T15:26:32.173Z,100567.25
2023-03-12T15:29:29.084Z,100569.00
2023-03-12T15:32:03.474Z,100555.03
2023-03-12T15:34:38.818Z,100559.50
2023-03-12T15:37:38.692Z,100557.75
2023-03-12T15:40:23.716Z,100555.13
2023-03-12T15:43:01.851Z,100552.56
2023-03-12T15:45:39.694Z,100552.50
2023-03-12T15:48:41.540Z,100540.88
2023-03-12T15:51:40.548Z,100561.28
2023-03-12T15:54:18.537Z,100542.91
2023-03-12T15:56:50.638Z,100541.28
2023-03-12T15:59:29.083Z,100528.81
2023-03-12T16:02:01.215Z,100556.16
2023-03-12T16:04:33.197Z,100549.03
2023-03-12T16:07:11.893Z,100549.03
2023-03-12T16:09:43.869Z,100535.03
2023-03-12T16:12:15.830Z,100535.94
2023-03-12T16:14:49.382Z,100536.78
2023-03-12T16:17:22.986Z,100543.00
2023-03-12T16:19:54.969Z,100534.22
2023-03-12T16:22:27.073Z,100539.47
2023-03-12T16:24:59.007Z,100538.56
2023-03-12T16:27:33.030Z,100539.47
2023-03-12T16:30:18.306Z,100522.69
2023-03-12T16:32:50.290Z,100538.56
2023-03-12T16:35:23.054Z,100546.47
2023-03-12T16:37:55.775Z,100546.47
2023-03-12T16:40:33.796Z,100544.69
2023-03-12T16:43:15.615Z,100538.44
2023-03-12T16:45:49.694Z,100531.44
2023-03-12T16:48:27.067Z,100537.59
2023-03-12T16:50:59.077Z,100529.59
2023-03-12T16:53:31.028Z,100538.34
2023-03-12T16:56:03.086Z,100546.31
2023-03-12T16:58:36.380Z,100535.72
2023-03-12T17:01:16.298Z,100539.19
2023-03-12T17:03:53.182Z,100539.97
2023-03-12T17:06:27.241Z,100540.88
2023-03-12T17:08:59.705Z,100548.84
2023-03-12T17:11:34.991Z,100554.09
2023-03-12T17:14:22.080Z,100547.78
2023-03-12T17:16:54.444Z,100556.66
2023-03-12T17:19:26.440Z,100517.47
2023-03-12T17:21:58.487Z,100567.06
2023-03-12T17:24:30.525Z,100542.06
2023-03-12T17:27:02.532Z,100563.50
2023-03-12T17:29:34.556Z,100572.25
2023-03-12T17:32:07.228Z,100584.56
2023-03-12T17:34:39.161Z,100571.91
2023-03-12T17:37:11.192Z,100584.66
2023-03-12T17:39:43.225Z,100581.03
2023-03-12T17:42:15.184Z,100590.59
2023-03-12T17:44:47.321Z,100592.34
2023-03-12T17:47:19.274Z,100580.91
2023-03-12T17:49:51.740Z,100589.69
2023-03-12T17:52:24.468Z,100584.41
2023-03-12T17:54:56.441Z,100585.25
2023-03-12T17:57:28.607Z,100579.09
2023-03-12T18:00:00.739Z,100589.56
2023-03-12T18:02:32.726Z,100581.63
2023-03-12T18:05:05.398Z,100585.13
2023-03-12T18:07:37.869Z,100591.34
2023-03-12T18:10:11.310Z,100578.13
2023-03-12T18:12:43.726Z,100587.75
2023-03-12T18:15:16.779Z,100576.25
2023-03-12T18:17:52.375Z,100575.34
2023-03-12T18:20:37.526Z,100584.16
2023-03-12T18:23:10.636Z,100578.94
2023-03-12T18:25:42.834Z,100581.63
2023-03-12T18:28:15.383Z,100573.56
2023-03-12T18:30:48.394Z,100575.47
2023-03-12T18:33:20.325Z,100574.53
2023-03-12T18:35:54.434Z,100572.78
2023-03-12T18:38:26.632Z,100571.75
2023-03-12T18:41:06.705Z,100580.50
2023-03-12T18:43:40.589Z,100581.34
2023-03-12T18:46:13.112Z,100578.81
2023-03-12T18:48:45.118Z,100567.34
2023-03-12T18:51:17.023Z,100573.50
2023-03-12T18:53:49.079Z,100568.19
2023-03-12T18:56:20.995Z,100552.41
2023-03-12T18:58:52.957Z,100559.38
2023-03-12T19:01:26.150Z,100554.97
2023-03-12T19:03:58.296Z,100555.78
2023-03-12T19:06:40.824Z,100554.97
2023-03-12T19:09:20.341Z,100527.41
2023-03-12T19:11:52.331Z,100539.94
2023-03-12T19:14:26.710Z,100546.06
2023-03-12T19:16:58.695Z,100543.47
2023-03-12T19:19:30.867Z,100540.00
2023-03-12T19:22:03.685Z,100543.44
2023-03-12T19:24:35.632Z,100537.22
2023-03-12T19:27:07.580Z,100539.84
2023-03-12T19:29:39.484Z,100539.84
2023-03-12T19:32:11.498Z,100526.50
2023-03-12T19:34:50.169Z,100533.56
2023-03-12T19:37:23.928Z,100536.13
2023-03-12T19:39:55.873Z,100532.66
2023-03-12T19:42:27.830Z,100535.25
2023-03-12T19:44:59.861Z,100536.13
2023-03-12T19:47:33.319Z,100524.59
2023-03-12T19:50:06.670Z,100522.78
2023-03-12T19:52:38.822Z,100511.38
2023-03-12T19:55:11.984Z,100506.13
2023-03-12T19:57:44.123Z,100497.28
2023-03-12T20:00:16.498Z,100482.38
2023-03-12T20:02:49.236Z,100480.59
2023-03-12T20:05:21.289Z,100483.22
2023-03-12T20:07:53.311Z,100461.28
2023-03-12T20:10:26.004Z,100454.97
2023-03-12T20:12:57.953Z,100463.91
2023-03-12T20:15:30.089Z,100457.69
2023-03-12T20:18:02.018Z,100460.31
2023-03-12T20:20:34.034Z,100467.28
2023-03-12T20:23:06.361Z,100457.66
2023-03-12T20:25:42.302Z,100441.00
2023-03-12T20:28:14.277Z,100419.72
2023-03-12T20:30:46.364Z,100430.47
2023-03-12T20:33:18.744Z,100426.81
2023-03-12T20:35:50.747Z,100425.16
2023-03-12T20:38:22.737Z,100396.66
2023-03-12T20:40:54.646Z,100424.25
2023-03-12T20:43:27.140Z,100417.28
2023-03-12T20:45:59.151Z,100409.19
2023-03-12T20:48:31.110Z,100414.56
2023-03-12T20:51:03.682Z,100423.28
2023-03-12T20:53:35.709Z,100421.41
2023-03-12T20:56:08.604Z,100411.88
2023-03-12T20:58:40.816Z,100413.59
2023-03-12T21:01:12.807Z,100404.81
2023-03-12T21:03:44.861Z,100409.19
2023-03-12T21:06:16.876Z,100399.56
2023-03-12T21:08:48.853Z,100402.25
2023-03-12T21:11:20.830Z,100393.31
2023-03-12T21:13:53.915Z,100393.41
2023-03-12T21:16:25.942Z,100388.97
2023-03-12T21:18:58.799Z,100392.56
2023-03-12T21:21:32.060Z,100378.38
2023-03-12T21:24:04.603Z,100386.47
2023-03-12T21:26:36.726Z,100374.88
2023-03-12T21:29:09.018Z,100360.84
2023-03-12T21:31:40.995Z,100379.44
2023-03-12T21:34:12.895Z,100380.31
2023-03-12T21:36:46.360Z,100360.13
2023-03-12T21:39:18.863Z,100372.56
2023-03-12T21:41:50.830Z,100363.81
2023-03-12T21:44:22.806Z,100355.06
2023-03-12T21:46:54.693Z,100353.34
2023-03-12T21:49:26.735Z,100341.16
2023-03-12T21:51:58.752Z,100327.88
2023-03-12T21:54:35.321Z,100328.84
2023-03-12T21:57:07.257Z,100327.97
2023-03-12T21:59:39.251Z,100327.06
2023-03-12T22:02:15.231Z,100318.34
2023-03-12T22:04:47.216Z,100320.06
2023-03-12T22:07:19.134Z,100308.66
2023-03-12T22:09:51.124Z,100301.66
2023-03-12T22:12:23.139Z,100283.19
2023-03-12T22:14:55.112Z,100290.25
2023-03-12T22:17:27.683Z,100273.56
2023-03-12T22:19:59.642Z,100267.53
2023-03-12T22:22:31.626Z,100272.81
2023-03-12T22:25:03.816Z,100261.44
2023-03-12T22:27:35.773Z,100258.88
2023-03-12T22:30:08.808Z,100243.97
2023-03-12T22:32:40.835Z,100247.47
2023-03-12T22:35:12.902Z,100236.88
2023-03-12T22:37:45.571Z,100235.16
2023-03-12T22:40:17.699Z,100229.00
2023-03-12T22:42:56.168Z,100181.16
2023-03-12T22:45:28.106Z,100227.25
2023-03-12T22:48:00.530Z,100216.72
2023-03-12T22:50:32.669Z,100182.09
2023-03-12T22:53:04.623Z,100220.22
2023-03-12T22:55:36.529Z,100209.63
2023-03-12T22:58:08.686Z,100213.09
2023-03-12T23:00:40.594Z,100214.94
2023-03-12T23:03:12.593Z,100207.00
2023-03-12T23:05:44.559Z,100199.94
2023-03-12T23:08:16.555Z,100204.44
2023-03-12T23:11:01.294Z,100196.47
2023-03-12T23:13:36.934Z,100197.38
2023-03-12T23:16:13.548Z,100187.72
2023-03-12T23:18:46.873Z,100167.44
2023-03-12T23:21:23.003Z,100172.81
2023-03-12T23:23:54.991Z,100167.56
2023-03-12T23:26:28.789Z,100161.44
2023-03-12T23:29:01.466Z,100155.19
2023-03-12T23:31:33.605Z,100151.72
2023-03-12T23:34:08.921Z,100153.53
2023-03-12T23:36:42.515Z,100150.00
2023-03-12T23:39:15.426Z,100142.97
2023-03-12T23:41:47.352Z,100130.69
2023-03-12T23:44:19.272Z,100115.81
2023-03-12T23:46:51.585Z,100118.41
2023-03-12T23:49:23.561Z,100092.00
2023-03-12T23:51:55.479Z,100099.16
2023-03-12T23:54:27.430Z,100082.44
2023-03-12T23:56:59.433Z,100087.69
2023-03-12T23:59:31.378Z,100072.66
